sensor_id;sensor_type;location;lat;lon;timestamp;P1;durP1;ratioP1;P2;durP2;ratioP2
23328;SDS011;11836;51.050;3.716;2023-03-01T00:01:23;1.92;;;1.48;;
23328;SDS011;11836;51.050;3.716;2023-03-01T00:03:51;1.80;;;1.40;;
23328;SDS011;11836;51.050;3.716;2023-03-01T00:06:17;3.13;;;1.80;;
23328;SDS011;11836;51.050;3.716;2023-03-01T00:08:44;2.75;;;1.70;;
23328;SDS011;11836;51.050;3.716;2023-03-01T00:11:19;2.95;;;1.88;;
23328;SDS011;11836;51.050;3.716;2023-03-01T00:13:47;4.13;;;2.13;;
23328;SDS011;11836;51.050;3.716;2023-03-01T00:16:24;2.60;;;1.85;;
23328;SDS011;11836;51.050;3.716;2023-03-01T00:18:53;2.67;;;1.60;;
23328;SDS011;11836;51.050;3.716;2023-03-01T00:21:20;2.15;;;1.80;;
23328;SDS011;11836;51.050;3.716;2023-03-01T00:23:47;2.28;;;1.67;;
23328;SDS011;11836;51.050;3.716;2023-03-01T00:26:14;3.13;;;1.90;;
23328;SDS011;11836;51.050;3.716;2023-03-01T00:28:41;2.38;;;1.80;;
23328;SDS011;11836;51.050;3.716;2023-03-01T00:31:08;1.75;;;1.52;;
23328;SDS011;11836;51.050;3.716;2023-03-01T00:33:36;2.63;;;1.85;;
23328;SDS011;11836;51.050;3.716;2023-03-01T00:36:02;1.88;;;1.60;;
23328;SDS011;11836;51.050;3.716;2023-03-01T00:38:28;2.45;;;2.20;;
23328;SDS011;11836;51.050;3.716;2023-03-01T00:40:54;2.22;;;1.60;;
23328;SDS011;11836;51.050;3.716;2023-03-01T00:43:20;2.95;;;1.55;;
23328;SDS011;11836;51.050;3.716;2023-03-01T00:45:46;3.30;;;1.77;;
23328;SDS011;11836;51.050;3.716;2023-03-01T00:48:11;2.20;;;1.48;;
23328;SDS011;11836;51.050;3.716;2023-03-01T00:50:37;1.88;;;1.38;;
23328;SDS011;11836;51.050;3.716;2023-03-01T00:53:06;1.83;;;1.40;;
23328;SDS011;11836;51.050;3.716;2023-03-01T00:55:32;2.75;;;1.40;;
23328;SDS011;11836;51.050;3.716;2023-03-01T00:57:58;2.22;;;1.80;;
23328;SDS011;11836;51.050;3.716;2023-03-01T01:00:24;3.83;;;1.75;;
23328;SDS011;11836;51.050;3.716;2023-03-01T01:02:52;2.10;;;1.30;;
23328;SDS011;11836;51.050;3.716;2023-03-01T01:05:18;2.35;;;1.73;;
23328;SDS011;11836;51.050;3.716;2023-03-01T01:07:45;2.20;;;1.58;;
23328;SDS011;11836;51.050;3.716;2023-03-01T01:10:13;2.45;;;1.45;;
23328;SDS011;11836;51.050;3.716;2023-03-01T01:12:42;2.78;;;1.92;;
23328;SDS011;11836;51.050;3.716;2023-03-01T01:15:11;2.10;;;1.50;;
23328;SDS011;11836;51.050;3.716;2023-03-01T01:17:39;2.08;;;1.50;;
23328;SDS011;11836;51.050;3.716;2023-03-01T01:20:05;3.47;;;2.08;;
23328;SDS011;11836;51.050;3.716;2023-03-01T01:22:32;2.08;;;1.80;;
23328;SDS011;11836;51.050;3.716;2023-03-01T01:24:58;1.85;;;1.45;;
23328;SDS011;11836;51.050;3.716;2023-03-01T01:27:23;2.72;;;1.73;;
23328;SDS011;11836;51.050;3.716;2023-03-01T01:29:49;1.95;;;1.48;;
23328;SDS011;11836;51.050;3.716;2023-03-01T01:32:15;1.95;;;1.70;;
23328;SDS011;11836;51.050;3.716;2023-03-01T01:34:40;2.22;;;1.50;;
23328;SDS011;11836;51.050;3.716;2023-03-01T01:37:06;2.42;;;1.83;;
23328;SDS011;11836;51.050;3.716;2023-03-01T01:39:33;2.80;;;1.88;;
23328;SDS011;11836;51.050;3.716;2023-03-01T01:42:01;1.90;;;1.45;;
23328;SDS011;11836;51.050;3.716;2023-03-01T01:44:27;1.98;;;1.40;;
23328;SDS011;11836;51.050;3.716;2023-03-01T01:47:05;3.05;;;1.70;;
23328;SDS011;11836;51.050;3.716;2023-03-01T01:49:38;4.35;;;1.30;;
23328;SDS011;11836;51.050;3.716;2023-03-01T01:52:15;3.15;;;1.85;;
23328;SDS011;11836;51.050;3.716;2023-03-01T01:55:11;1.58;;;1.25;;
23328;SDS011;11836;51.050;3.716;2023-03-01T01:57:43;2.75;;;1.92;;
23328;SDS011;11836;51.050;3.716;2023-03-01T02:00:14;3.55;;;2.10;;
23328;SDS011;11836;51.050;3.716;2023-03-01T02:02:42;2.75;;;1.63;;
23328;SDS011;11836;51.050;3.716;2023-03-01T02:05:11;3.20;;;1.98;;
23328;SDS011;11836;51.050;3.716;2023-03-01T02:07:47;3.20;;;1.90;;
23328;SDS011;11836;51.050;3.716;2023-03-01T02:10:14;2.65;;;1.92;;
23328;SDS011;11836;51.050;3.716;2023-03-01T02:12:40;2.95;;;2.25;;
23328;SDS011;11836;51.050;3.716;2023-03-01T02:15:07;3.22;;;2.30;;
23328;SDS011;11836;51.050;3.716;2023-03-01T02:17:33;2.78;;;2.03;;
23328;SDS011;11836;51.050;3.716;2023-03-01T02:22:55;3.13;;;2.03;;
23328;SDS011;11836;51.050;3.716;2023-03-01T02:25:30;3.35;;;1.88;;
23328;SDS011;11836;51.050;3.716;2023-03-01T02:30:41;2.42;;;1.90;;
23328;SDS011;11836;51.050;3.716;2023-03-01T02:33:28;4.18;;;2.60;;
23328;SDS011;11836;51.050;3.716;2023-03-01T02:36:01;3.42;;;2.30;;
23328;SDS011;11836;51.050;3.716;2023-03-01T02:38:30;3.78;;;1.92;;
23328;SDS011;11836;51.050;3.716;2023-03-01T02:40:56;3.38;;;1.95;;
23328;SDS011;11836;51.050;3.716;2023-03-01T02:43:24;2.50;;;1.90;;
23328;SDS011;11836;51.050;3.716;2023-03-01T02:45:57;2.47;;;1.90;;
23328;SDS011;11836;51.050;3.716;2023-03-01T02:48:27;2.47;;;2.05;;
23328;SDS011;11836;51.050;3.716;2023-03-01T02:51:04;1.98;;;1.80;;
23328;SDS011;11836;51.050;3.716;2023-03-01T02:56:13;1.73;;;1.60;;
23328;SDS011;11836;51.050;3.716;2023-03-01T02:58:42;3.55;;;1.90;;
23328;SDS011;11836;51.050;3.716;2023-03-01T03:01:19;4.20;;;2.28;;
23328;SDS011;11836;51.050;3.716;2023-03-01T03:03:45;2.58;;;1.88;;
23328;SDS011;11836;51.050;3.716;2023-03-01T03:06:11;2.50;;;2.03;;
23328;SDS011;11836;51.050;3.716;2023-03-01T03:08:37;2.55;;;1.80;;
23328;SDS011;11836;51.050;3.716;2023-03-01T03:11:03;2.63;;;1.88;;
23328;SDS011;11836;51.050;3.716;2023-03-01T03:13:28;1.88;;;1.50;;
23328;SDS011;11836;51.050;3.716;2023-03-01T03:15:57;2.60;;;2.15;;
23328;SDS011;11836;51.050;3.716;2023-03-01T03:18:23;3.47;;;1.95;;
23328;SDS011;11836;51.050;3.716;2023-03-01T03:20:51;2.20;;;1.73;;
23328;SDS011;11836;51.050;3.716;2023-03-01T03:23:18;2.60;;;1.77;;
23328;SDS011;11836;51.050;3.716;2023-03-01T03:25:47;2.58;;;1.63;;
23328;SDS011;11836;51.050;3.716;2023-03-01T03:28:14;1.85;;;1.58;;
23328;SDS011;11836;51.050;3.716;2023-03-01T03:30:44;3.45;;;2.00;;
23328;SDS011;11836;51.050;3.716;2023-03-01T03:33:10;3.38;;;1.88;;
23328;SDS011;11836;51.050;3.716;2023-03-01T03:35:46;2.65;;;2.03;;
23328;SDS011;11836;51.050;3.716;2023-03-01T03:38:13;2.50;;;1.90;;
23328;SDS011;11836;51.050;3.716;2023-03-01T03:40:43;3.50;;;2.00;;
23328;SDS011;11836;51.050;3.716;2023-03-01T03:43:20;2.67;;;2.05;;
23328;SDS011;11836;51.050;3.716;2023-03-01T03:45:48;3.80;;;2.30;;
23328;SDS011;11836;51.050;3.716;2023-03-01T03:48:15;3.60;;;2.03;;
23328;SDS011;11836;51.050;3.716;2023-03-01T03:50:41;2.33;;;1.80;;
23328;SDS011;11836;51.050;3.716;2023-03-01T03:53:13;2.15;;;1.95;;
23328;SDS011;11836;51.050;3.716;2023-03-01T03:55:39;4.93;;;2.00;;
23328;SDS011;11836;51.050;3.716;2023-03-01T03:58:06;3.13;;;2.10;;
23328;SDS011;11836;51.050;3.716;2023-03-01T04:00:40;2.55;;;1.92;;
23328;SDS011;11836;51.050;3.716;2023-03-01T04:03:07;3.08;;;2.00;;
23328;SDS011;11836;51.050;3.716;2023-03-01T04:05:34;3.35;;;1.80;;
23328;SDS011;11836;51.050;3.716;2023-03-01T04:08:01;2.33;;;1.85;;
23328;SDS011;11836;51.050;3.716;2023-03-01T04:10:32;2.40;;;2.20;;
23328;SDS011;11836;51.050;3.716;2023-03-01T04:13:00;2.53;;;2.13;;
23328;SDS011;11836;51.050;3.716;2023-03-01T04:15:28;2.28;;;1.92;;
23328;SDS011;11836;51.050;3.716;2023-03-01T04:17:55;2.72;;;2.10;;
23328;SDS011;11836;51.050;3.716;2023-03-01T04:20:22;2.63;;;1.90;;
23328;SDS011;11836;51.050;3.716;2023-03-01T04:22:49;2.60;;;2.20;;
23328;SDS011;11836;51.050;3.716;2023-03-01T04:25:42;3.65;;;2.10;;
23328;SDS011;11836;51.050;3.716;2023-03-01T04:28:25;3.20;;;2.35;;
23328;SDS011;11836;51.050;3.716;2023-03-01T04:30:52;4.43;;;2.70;;
23328;SDS011;11836;51.050;3.716;2023-03-01T04:33:22;4.05;;;2.10;;
23328;SDS011;11836;51.050;3.716;2023-03-01T04:35:48;3.40;;;1.92;;
23328;SDS011;11836;51.050;3.716;2023-03-01T04:38:18;5.53;;;3.55;;
23328;SDS011;11836;51.050;3.716;2023-03-01T04:40:46;4.03;;;2.97;;
23328;SDS011;11836;51.050;3.716;2023-03-01T04:43:12;4.18;;;2.80;;
23328;SDS011;11836;51.050;3.716;2023-03-01T04:45:40;3.60;;;2.38;;
23328;SDS011;11836;51.050;3.716;2023-03-01T04:48:06;4.40;;;3.47;;
23328;SDS011;11836;51.050;3.716;2023-03-01T04:50:32;5.10;;;2.97;;
23328;SDS011;11836;51.050;3.716;2023-03-01T04:52:58;2.90;;;2.58;;
23328;SDS011;11836;51.050;3.716;2023-03-01T04:55:27;4.03;;;2.35;;
23328;SDS011;11836;51.050;3.716;2023-03-01T04:57:53;3.58;;;2.60;;
23328;SDS011;11836;51.050;3.716;2023-03-01T05:00:20;3.92;;;2.55;;
23328;SDS011;11836;51.050;3.716;2023-03-01T05:02:47;3.42;;;2.75;;
23328;SDS011;11836;51.050;3.716;2023-03-01T05:05:18;3.53;;;2.40;;
23328;SDS011;11836;51.050;3.716;2023-03-01T05:07:45;3.03;;;2.63;;
23328;SDS011;11836;51.050;3.716;2023-03-01T05:10:12;4.25;;;3.40;;
23328;SDS011;11836;51.050;3.716;2023-03-01T05:12:38;4.38;;;2.83;;
23328;SDS011;11836;51.050;3.716;2023-03-01T05:15:04;3.53;;;2.38;;
23328;SDS011;11836;51.050;3.716;2023-03-01T05:17:32;4.40;;;3.05;;
23328;SDS011;11836;51.050;3.716;2023-03-01T05:19:59;3.42;;;2.90;;
23328;SDS011;11836;51.050;3.716;2023-03-01T05:22:24;5.43;;;3.53;;
23328;SDS011;11836;51.050;3.716;2023-03-01T05:24:55;4.47;;;3.10;;
23328;SDS011;11836;51.050;3.716;2023-03-01T05:27:20;4.63;;;2.90;;
23328;SDS011;11836;51.050;3.716;2023-03-01T05:29:47;3.65;;;2.67;;
23328;SDS011;11836;51.050;3.716;2023-03-01T05:32:13;5.65;;;3.72;;
23328;SDS011;11836;51.050;3.716;2023-03-01T05:34:42;3.88;;;3.25;;
23328;SDS011;11836;51.050;3.716;2023-03-01T05:37:11;5.38;;;3.65;;
23328;SDS011;11836;51.050;3.716;2023-03-01T05:39:39;4.03;;;3.10;;
23328;SDS011;11836;51.050;3.716;2023-03-01T05:42:04;3.85;;;2.60;;
23328;SDS011;11836;51.050;3.716;2023-03-01T05:44:31;2.88;;;2.50;;
23328;SDS011;11836;51.050;3.716;2023-03-01T05:46:57;2.78;;;2.05;;
23328;SDS011;11836;51.050;3.716;2023-03-01T05:49:23;3.40;;;2.60;;
23328;SDS011;11836;51.050;3.716;2023-03-01T05:51:50;7.10;;;3.22;;
23328;SDS011;11836;51.050;3.716;2023-03-01T05:54:18;4.40;;;2.50;;
23328;SDS011;11836;51.050;3.716;2023-03-01T05:56:45;4.25;;;3.10;;
23328;SDS011;11836;51.050;3.716;2023-03-01T05:59:12;3.90;;;2.78;;
23328;SDS011;11836;51.050;3.716;2023-03-01T06:01:38;4.18;;;3.22;;
23328;SDS011;11836;51.050;3.716;2023-03-01T06:04:04;4.00;;;2.60;;
23328;SDS011;11836;51.050;3.716;2023-03-01T06:06:34;4.43;;;2.47;;
23328;SDS011;11836;51.050;3.716;2023-03-01T06:09:02;3.58;;;2.55;;
23328;SDS011;11836;51.050;3.716;2023-03-01T06:11:29;3.92;;;2.75;;
23328;SDS011;11836;51.050;3.716;2023-03-01T06:13:54;2.53;;;2.03;;
23328;SDS011;11836;51.050;3.716;2023-03-01T06:16:20;3.22;;;2.47;;
23328;SDS011;11836;51.050;3.716;2023-03-01T06:18:46;2.88;;;2.33;;
23328;SDS011;11836;51.050;3.716;2023-03-01T06:21:13;3.25;;;2.75;;
23328;SDS011;11836;51.050;3.716;2023-03-01T06:23:39;2.72;;;2.40;;
23328;SDS011;11836;51.050;3.716;2023-03-01T06:26:06;4.80;;;2.88;;
23328;SDS011;11836;51.050;3.716;2023-03-01T06:28:32;3.13;;;2.30;;
23328;SDS011;11836;51.050;3.716;2023-03-01T06:30:58;2.72;;;2.00;;
23328;SDS011;11836;51.050;3.716;2023-03-01T06:33:24;3.45;;;2.47;;
23328;SDS011;11836;51.050;3.716;2023-03-01T06:35:50;3.03;;;2.53;;
23328;SDS011;11836;51.050;3.716;2023-03-01T06:38:19;3.75;;;3.00;;
23328;SDS011;11836;51.050;3.716;2023-03-01T06:40:45;3.90;;;3.03;;
23328;SDS011;11836;51.050;3.716;2023-03-01T06:43:16;5.22;;;3.25;;
23328;SDS011;11836;51.050;3.716;2023-03-01T06:45:42;3.60;;;3.10;;
23328;SDS011;11836;51.050;3.716;2023-03-01T06:48:08;2.85;;;2.40;;
23328;SDS011;11836;51.050;3.716;2023-03-01T06:50:33;3.90;;;2.88;;
23328;SDS011;11836;51.050;3.716;2023-03-01T06:53:00;3.80;;;2.90;;
23328;SDS011;11836;51.050;3.716;2023-03-01T06:55:26;3.97;;;2.40;;
23328;SDS011;11836;51.050;3.716;2023-03-01T06:57:55;2.95;;;2.70;;
23328;SDS011;11836;51.050;3.716;2023-03-01T07:00:22;3.50;;;2.58;;
23328;SDS011;11836;51.050;3.716;2023-03-01T07:02:48;3.72;;;2.85;;
23328;SDS011;11836;51.050;3.716;2023-03-01T07:05:14;4.63;;;3.03;;
23328;SDS011;11836;51.050;3.716;2023-03-01T07:07:40;2.40;;;2.20;;
23328;SDS011;11836;51.050;3.716;2023-03-01T07:10:06;4.72;;;2.35;;
23328;SDS011;11836;51.050;3.716;2023-03-01T07:12:32;3.25;;;2.65;;
23328;SDS011;11836;51.050;3.716;2023-03-01T07:14:58;3.58;;;2.63;;
23328;SDS011;11836;51.050;3.716;2023-03-01T07:17:24;3.83;;;2.80;;
23328;SDS011;11836;51.050;3.716;2023-03-01T07:19:49;3.03;;;2.28;;
23328;SDS011;11836;51.050;3.716;2023-03-01T07:22:15;2.60;;;2.13;;
23328;SDS011;11836;51.050;3.716;2023-03-01T07:24:41;4.30;;;2.72;;
23328;SDS011;11836;51.050;3.716;2023-03-01T07:27:07;3.25;;;2.60;;
23328;SDS011;11836;51.050;3.716;2023-03-01T07:29:34;4.85;;;3.22;;
23328;SDS011;11836;51.050;3.716;2023-03-01T07:32:01;3.72;;;2.40;;
23328;SDS011;11836;51.050;3.716;2023-03-01T07:34:27;4.20;;;2.70;;
23328;SDS011;11836;51.050;3.716;2023-03-01T07:36:53;6.05;;;2.92;;
23328;SDS011;11836;51.050;3.716;2023-03-01T07:39:19;4.15;;;2.67;;
23328;SDS011;11836;51.050;3.716;2023-03-01T07:41:44;4.68;;;3.35;;
23328;SDS011;11836;51.050;3.716;2023-03-01T07:44:10;5.43;;;3.42;;
23328;SDS011;11836;51.050;3.716;2023-03-01T07:46:36;5.28;;;3.97;;
23328;SDS011;11836;51.050;3.716;2023-03-01T07:49:02;7.18;;;4.10;;
23328;SDS011;11836;51.050;3.716;2023-03-01T07:51:27;7.00;;;3.47;;
23328;SDS011;11836;51.050;3.716;2023-03-01T07:53:53;6.15;;;3.88;;
23328;SDS011;11836;51.050;3.716;2023-03-01T07:56:19;9.13;;;4.20;;
23328;SDS011;11836;51.050;3.716;2023-03-01T07:58:46;6.90;;;3.15;;
23328;SDS011;11836;51.050;3.716;2023-03-01T08:01:16;5.93;;;3.50;;
23328;SDS011;11836;51.050;3.716;2023-03-01T08:03:46;5.63;;;3.75;;
23328;SDS011;11836;51.050;3.716;2023-03-01T08:06:13;3.90;;;3.17;;
23328;SDS011;11836;51.050;3.716;2023-03-01T08:08:41;5.57;;;2.88;;
23328;SDS011;11836;51.050;3.716;2023-03-01T08:11:07;5.13;;;3.53;;
23328;SDS011;11836;51.050;3.716;2023-03-01T08:13:35;4.97;;;3.50;;
23328;SDS011;11836;51.050;3.716;2023-03-01T08:16:05;4.50;;;3.17;;
23328;SDS011;11836;51.050;3.716;2023-03-01T08:18:32;6.32;;;3.45;;
23328;SDS011;11836;51.050;3.716;2023-03-01T08:21:02;5.93;;;3.00;;
23328;SDS011;11836;51.050;3.716;2023-03-01T08:23:33;3.50;;;2.63;;
23328;SDS011;11836;51.050;3.716;2023-03-01T08:26:09;3.42;;;2.38;;
23328;SDS011;11836;51.050;3.716;2023-03-01T08:28:40;7.18;;;4.00;;
23328;SDS011;11836;51.050;3.716;2023-03-01T08:31:17;4.28;;;3.10;;
23328;SDS011;11836;51.050;3.716;2023-03-01T08:33:43;3.50;;;2.83;;
23328;SDS011;11836;51.050;3.716;2023-03-01T08:36:09;4.10;;;3.03;;
23328;SDS011;11836;51.050;3.716;2023-03-01T08:38:35;6.45;;;3.20;;
23328;SDS011;11836;51.050;3.716;2023-03-01T08:41:01;6.10;;;3.50;;
23328;SDS011;11836;51.050;3.716;2023-03-01T08:43:28;4.50;;;2.80;;
23328;SDS011;11836;51.050;3.716;2023-03-01T08:45:54;4.25;;;2.60;;
23328;SDS011;11836;51.050;3.716;2023-03-01T08:48:19;4.82;;;3.40;;
23328;SDS011;11836;51.050;3.716;2023-03-01T08:50:45;3.63;;;2.88;;
23328;SDS011;11836;51.050;3.716;2023-03-01T08:53:11;5.20;;;3.40;;
23328;SDS011;11836;51.050;3.716;2023-03-01T08:55:36;4.78;;;3.40;;
23328;SDS011;11836;51.050;3.716;2023-03-01T08:58:02;4.68;;;3.28;;
23328;SDS011;11836;51.050;3.716;2023-03-01T09:00:28;4.63;;;2.70;;
23328;SDS011;11836;51.050;3.716;2023-03-01T09:02:53;6.75;;;3.10;;
23328;SDS011;11836;51.050;3.716;2023-03-01T09:05:19;5.82;;;3.15;;
23328;SDS011;11836;51.050;3.716;2023-03-01T09:07:44;6.32;;;3.65;;
23328;SDS011;11836;51.050;3.716;2023-03-01T09:10:10;4.75;;;3.30;;
23328;SDS011;11836;51.050;3.716;2023-03-01T09:12:36;7.07;;;3.50;;
23328;SDS011;11836;51.050;3.716;2023-03-01T09:15:02;4.40;;;3.10;;
23328;SDS011;11836;51.050;3.716;2023-03-01T09:17:28;6.95;;;3.30;;
23328;SDS011;11836;51.050;3.716;2023-03-01T09:19:53;5.07;;;3.45;;
23328;SDS011;11836;51.050;3.716;2023-03-01T09:22:19;5.85;;;3.40;;
23328;SDS011;11836;51.050;3.716;2023-03-01T09:24:45;3.63;;;2.50;;
23328;SDS011;11836;51.050;3.716;2023-03-01T09:27:10;5.63;;;3.05;;
23328;SDS011;11836;51.050;3.716;2023-03-01T09:29:38;4.57;;;3.05;;
23328;SDS011;11836;51.050;3.716;2023-03-01T09:32:04;4.68;;;3.35;;
23328;SDS011;11836;51.050;3.716;2023-03-01T09:34:30;3.83;;;2.92;;
23328;SDS011;11836;51.050;3.716;2023-03-01T09:36:57;4.60;;;2.60;;
23328;SDS011;11836;51.050;3.716;2023-03-01T09:39:23;5.60;;;3.85;;
23328;SDS011;11836;51.050;3.716;2023-03-01T09:41:50;6.03;;;3.40;;
23328;SDS011;11836;51.050;3.716;2023-03-01T09:44:35;4.07;;;2.83;;
23328;SDS011;11836;51.050;3.716;2023-03-01T09:47:26;3.35;;;2.85;;
23328;SDS011;11836;51.050;3.716;2023-03-01T09:50:00;4.38;;;2.60;;
23328;SDS011;11836;51.050;3.716;2023-03-01T09:53:02;4.72;;;2.60;;
23328;SDS011;11836;51.050;3.716;2023-03-01T09:55:39;4.68;;;3.25;;
23328;SDS011;11836;51.050;3.716;2023-03-01T10:01:50;4.07;;;2.42;;
23328;SDS011;11836;51.050;3.716;2023-03-01T10:04:00;3.53;;;2.45;;
23328;SDS011;11836;51.050;3.716;2023-03-01T10:06:29;4.07;;;2.80;;
23328;SDS011;11836;51.050;3.716;2023-03-01T10:09:05;4.53;;;2.70;;
23328;SDS011;11836;51.050;3.716;2023-03-01T10:11:38;5.35;;;3.20;;
23328;SDS011;11836;51.050;3.716;2023-03-01T10:17:26;3.60;;;2.67;;
23328;SDS011;11836;51.050;3.716;2023-03-01T10:20:22;3.80;;;2.70;;
23328;SDS011;11836;51.050;3.716;2023-03-01T10:22:45;4.25;;;2.97;;
23328;SDS011;11836;51.050;3.716;2023-03-01T10:25:15;4.38;;;2.72;;
23328;SDS011;11836;51.050;3.716;2023-03-01T10:27:53;4.13;;;2.35;;
23328;SDS011;11836;51.050;3.716;2023-03-01T10:30:40;3.53;;;2.72;;
23328;SDS011;11836;51.050;3.716;2023-03-01T10:33:22;6.55;;;2.78;;
23328;SDS011;11836;51.050;3.716;2023-03-01T10:35:50;6.57;;;2.70;;
23328;SDS011;11836;51.050;3.716;2023-03-01T10:38:16;3.83;;;2.83;;
23328;SDS011;11836;51.050;3.716;2023-03-01T10:40:50;5.50;;;3.53;;
23328;SDS011;11836;51.050;3.716;2023-03-01T10:43:26;3.67;;;2.47;;
23328;SDS011;11836;51.050;3.716;2023-03-01T10:46:09;5.68;;;3.30;;
23328;SDS011;11836;51.050;3.716;2023-03-01T10:48:50;4.40;;;2.60;;
23328;SDS011;11836;51.050;3.716;2023-03-01T10:51:42;5.35;;;2.80;;
23328;SDS011;11836;51.050;3.716;2023-03-01T10:54:28;3.85;;;2.42;;
23328;SDS011;11836;51.050;3.716;2023-03-01T10:59:29;4.03;;;2.47;;
23328;SDS011;11836;51.050;3.716;2023-03-01T11:04:59;3.00;;;2.22;;
23328;SDS011;11836;51.050;3.716;2023-03-01T11:07:48;5.13;;;2.78;;
23328;SDS011;11836;51.050;3.716;2023-03-01T11:10:22;3.50;;;2.60;;
23328;SDS011;11836;51.050;3.716;2023-03-01T11:12:48;5.53;;;2.63;;
23328;SDS011;11836;51.050;3.716;2023-03-01T11:15:27;3.17;;;2.53;;
23328;SDS011;11836;51.050;3.716;2023-03-01T11:17:54;4.53;;;2.30;;
23328;SDS011;11836;51.050;3.716;2023-03-01T11:20:35;2.95;;;2.03;;
23328;SDS011;11836;51.050;3.716;2023-03-01T11:23:03;5.22;;;2.85;;
23328;SDS011;11836;51.050;3.716;2023-03-01T11:25:43;6.05;;;2.88;;
23328;SDS011;11836;51.050;3.716;2023-03-01T11:28:14;5.85;;;2.70;;
23328;SDS011;11836;51.050;3.716;2023-03-01T11:38:52;3.13;;;2.50;;
23328;SDS011;11836;51.050;3.716;2023-03-01T11:41:20;5.78;;;2.70;;
23328;SDS011;11836;51.050;3.716;2023-03-01T11:43:59;5.13;;;2.45;;
23328;SDS011;11836;51.050;3.716;2023-03-01T11:52:00;3.33;;;2.80;;
23328;SDS011;11836;51.050;3.716;2023-03-01T11:57:19;3.85;;;2.90;;
23328;SDS011;11836;51.050;3.716;2023-03-01T12:08:28;4.53;;;2.85;;
23328;SDS011;11836;51.050;3.716;2023-03-01T12:14:04;5.15;;;3.10;;
23328;SDS011;11836;51.050;3.716;2023-03-01T12:26:14;3.97;;;2.13;;
23328;SDS011;11836;51.050;3.716;2023-03-01T12:36:59;4.80;;;2.10;;
23328;SDS011;11836;51.050;3.716;2023-03-01T12:45:42;5.53;;;1.90;;
23328;SDS011;11836;51.050;3.716;2023-03-01T12:50:54;3.40;;;1.98;;
23328;SDS011;11836;51.050;3.716;2023-03-01T12:53:29;2.75;;;2.03;;
23328;SDS011;11836;51.050;3.716;2023-03-01T12:56:14;3.72;;;2.33;;
23328;SDS011;11836;51.050;3.716;2023-03-01T12:59:29;2.90;;;2.05;;
23328;SDS011;11836;51.050;3.716;2023-03-01T13:14:55;5.97;;;2.40;;
23328;SDS011;11836;51.050;3.716;2023-03-01T13:17:31;3.10;;;1.98;;
23328;SDS011;11836;51.050;3.716;2023-03-01T13:20:11;3.67;;;1.90;;
23328;SDS011;11836;51.050;3.716;2023-03-01T13:22:38;3.60;;;2.42;;
23328;SDS011;11836;51.050;3.716;2023-03-01T13:25:26;2.72;;;2.10;;
23328;SDS011;11836;51.050;3.716;2023-03-01T13:27:50;2.83;;;2.00;;
23328;SDS011;11836;51.050;3.716;2023-03-01T13:35:52;2.67;;;2.10;;
23328;SDS011;11836;51.050;3.716;2023-03-01T13:41:12;2.83;;;2.00;;
23328;SDS011;11836;51.050;3.716;2023-03-01T13:43:43;2.67;;;2.03;;
23328;SDS011;11836;51.050;3.716;2023-03-01T13:46:20;3.13;;;2.13;;
23328;SDS011;11836;51.050;3.716;2023-03-01T13:48:49;2.33;;;2.03;;
23328;SDS011;11836;51.050;3.716;2023-03-01T13:51:20;2.73;;;2.10;;
23328;SDS011;11836;51.050;3.716;2023-03-01T13:53:53;3.55;;;2.28;;
23328;SDS011;11836;51.050;3.716;2023-03-01T13:56:26;2.15;;;1.67;;
23328;SDS011;11836;51.050;3.716;2023-03-01T13:58:59;2.55;;;1.98;;
23328;SDS011;11836;51.050;3.716;2023-03-01T14:01:29;3.15;;;2.10;;
23328;SDS011;11836;51.050;3.716;2023-03-01T14:03:57;3.40;;;2.40;;
23328;SDS011;11836;51.050;3.716;2023-03-01T14:06:27;3.08;;;2.25;;
23328;SDS011;11836;51.050;3.716;2023-03-01T14:17:19;3.97;;;2.50;;
23328;SDS011;11836;51.050;3.716;2023-03-01T14:20:11;4.85;;;2.60;;
23328;SDS011;11836;51.050;3.716;2023-03-01T14:22:38;4.18;;;2.53;;
23328;SDS011;11836;51.050;3.716;2023-03-01T14:25:16;4.07;;;2.30;;
23328;SDS011;11836;51.050;3.716;2023-03-01T14:28:00;7.07;;;2.63;;
23328;SDS011;11836;51.050;3.716;2023-03-01T14:30:47;4.05;;;2.88;;
23328;SDS011;11836;51.050;3.716;2023-03-01T14:33:31;2.83;;;2.40;;
23328;SDS011;11836;51.050;3.716;2023-03-01T14:36:00;4.47;;;2.22;;
23328;SDS011;11836;51.050;3.716;2023-03-01T14:38:32;3.60;;;2.20;;
23328;SDS011;11836;51.050;3.716;2023-03-01T14:41:05;3.53;;;2.17;;
23328;SDS011;11836;51.050;3.716;2023-03-01T14:43:47;4.20;;;2.35;;
23328;SDS011;11836;51.050;3.716;2023-03-01T14:46:22;5.50;;;2.72;;
23328;SDS011;11836;51.050;3.716;2023-03-01T14:49:29;3.97;;;2.20;;
23328;SDS011;11836;51.050;3.716;2023-03-01T14:52:04;4.13;;;2.00;;
23328;SDS011;11836;51.050;3.716;2023-03-01T14:57:19;4.53;;;2.20;;
23328;SDS011;11836;51.050;3.716;2023-03-01T14:59:48;3.10;;;2.20;;
23328;SDS011;11836;51.050;3.716;2023-03-01T15:02:16;3.45;;;2.20;;
23328;SDS011;11836;51.050;3.716;2023-03-01T15:04:49;3.20;;;2.13;;
23328;SDS011;11836;51.050;3.716;2023-03-01T15:07:21;7.65;;;2.30;;
23328;SDS011;11836;51.050;3.716;2023-03-01T15:09:50;3.38;;;2.25;;
23328;SDS011;11836;51.050;3.716;2023-03-01T15:14:54;2.97;;;2.47;;
23328;SDS011;11836;51.050;3.716;2023-03-01T15:17:33;3.65;;;2.45;;
23328;SDS011;11836;51.050;3.716;2023-03-01T15:20:03;3.05;;;2.40;;
23328;SDS011;11836;51.050;3.716;2023-03-01T15:22:30;4.03;;;2.58;;
23328;SDS011;11836;51.050;3.716;2023-03-01T15:24:56;2.92;;;2.33;;
23328;SDS011;11836;51.050;3.716;2023-03-01T15:27:23;2.78;;;2.20;;
23328;SDS011;11836;51.050;3.716;2023-03-01T15:29:57;3.30;;;2.40;;
23328;SDS011;11836;51.050;3.716;2023-03-01T15:32:32;2.65;;;2.00;;
23328;SDS011;11836;51.050;3.716;2023-03-01T15:38:22;3.58;;;2.00;;
23328;SDS011;11836;51.050;3.716;2023-03-01T15:41:00;4.10;;;2.45;;
23328;SDS011;11836;51.050;3.716;2023-03-01T15:51:49;3.63;;;2.25;;
23328;SDS011;11836;51.050;3.716;2023-03-01T15:54:19;2.15;;;1.80;;
23328;SDS011;11836;51.050;3.716;2023-03-01T15:56:47;2.70;;;1.85;;
23328;SDS011;11836;51.050;3.716;2023-03-01T15:59:13;3.13;;;1.95;;
23328;SDS011;11836;51.050;3.716;2023-03-01T16:01:39;3.80;;;2.42;;
23328;SDS011;11836;51.050;3.716;2023-03-01T16:04:05;3.13;;;2.05;;
23328;SDS011;11836;51.050;3.716;2023-03-01T16:06:31;3.10;;;2.55;;
23328;SDS011;11836;51.050;3.716;2023-03-01T16:08:57;3.17;;;2.25;;
23328;SDS011;11836;51.050;3.716;2023-03-01T16:11:23;2.95;;;2.45;;
23328;SDS011;11836;51.050;3.716;2023-03-01T16:13:48;3.47;;;2.40;;
23328;SDS011;11836;51.050;3.716;2023-03-01T16:16:16;2.72;;;2.25;;
23328;SDS011;11836;51.050;3.716;2023-03-01T16:18:42;2.08;;;1.85;;
23328;SDS011;11836;51.050;3.716;2023-03-01T16:21:13;1.70;;;1.52;;
23328;SDS011;11836;51.050;3.716;2023-03-01T16:23:40;3.47;;;2.50;;
23328;SDS011;11836;51.050;3.716;2023-03-01T16:28:38;4.32;;;2.03;;
23328;SDS011;11836;51.050;3.716;2023-03-01T16:31:04;2.63;;;1.67;;
23328;SDS011;11836;51.050;3.716;2023-03-01T16:33:30;2.55;;;1.95;;
23328;SDS011;11836;51.050;3.716;2023-03-01T16:35:57;3.22;;;2.60;;
23328;SDS011;11836;51.050;3.716;2023-03-01T16:38:24;3.53;;;2.22;;
23328;SDS011;11836;51.050;3.716;2023-03-01T16:40:51;22.25;;;2.53;;
23328;SDS011;11836;51.050;3.716;2023-03-01T16:43:17;4.05;;;2.30;;
23328;SDS011;11836;51.050;3.716;2023-03-01T16:45:43;2.83;;;2.28;;
23328;SDS011;11836;51.050;3.716;2023-03-01T16:48:10;3.47;;;2.70;;
23328;SDS011;11836;51.050;3.716;2023-03-01T16:50:36;3.70;;;2.45;;
23328;SDS011;11836;51.050;3.716;2023-03-01T16:53:02;6.20;;;2.70;;
23328;SDS011;11836;51.050;3.716;2023-03-01T16:55:28;6.22;;;3.25;;
23328;SDS011;11836;51.050;3.716;2023-03-01T16:57:54;5.75;;;2.58;;
23328;SDS011;11836;51.050;3.716;2023-03-01T17:00:22;3.10;;;2.58;;
23328;SDS011;11836;51.050;3.716;2023-03-01T17:02:48;5.28;;;2.88;;
23328;SDS011;11836;51.050;3.716;2023-03-01T17:05:13;3.83;;;2.70;;
23328;SDS011;11836;51.050;3.716;2023-03-01T17:07:39;2.80;;;2.17;;